< < Back
Terminal Aerodrome Forecast


Current Version              Previous Versions:   1  2  3  4  5  6  7  8  9  

Terminal Aerodrome Forecast

590
FTUS42 KFFC 070539
TAFPDK
TAF
KPDK 070539Z 0706/0806 00000KT P6SM SKC
     FM071700 06004KT P6SM SKC
     FM080000 00000KT P6SM FEW250=



Latest METAR

474
SAUS70 KWBC 070800 RRG
MTRPDK
METAR KPDK 070753Z 02003KT 8SM CLR 13/12 A3011 RMK AO2 SLP186
T01330117


USA.gov is the U.S. government's official web portal to all federal, state and local government web resources and services.